createdAt,value
2018-03-08T00:00:42.582Z,85.00
2018-03-08T00:03:09.723Z,85.20
2018-03-08T00:05:36.432Z,85.20
2018-03-08T00:08:02.844Z,85.10
2018-03-08T00:10:29.295Z,85.10
2018-03-08T00:12:56.073Z,85.00
2018-03-08T00:15:23.240Z,85.10
2018-03-08T00:17:50.428Z,85.30
2018-03-08T00:20:16.899Z,85.30
2018-03-08T00:22:43.311Z,85.50
2018-03-08T00:25:09.729Z,85.50
2018-03-08T00:27:36.141Z,85.30
2018-03-08T00:30:02.617Z,85.30
2018-03-08T00:32:29.025Z,85.30
2018-03-08T00:34:55.475Z,85.00
2018-03-08T00:37:21.970Z,85.10
2018-03-08T00:39:48.394Z,85.20
2018-03-08T00:42:14.820Z,85.20
2018-03-08T00:44:41.235Z,85.30
2018-03-08T00:47:07.643Z,85.60
2018-03-08T00:49:34.062Z,85.80
2018-03-08T00:52:00.480Z,86.10
2018-03-08T00:54:27.637Z,86.20
2018-03-08T00:56:54.823Z,86.70
2018-03-08T00:59:21.245Z,86.60
2018-03-08T01:01:47.676Z,87.00
2018-03-08T01:04:14.144Z,87.00
2018-03-08T01:06:40.552Z,87.00
2018-03-08T01:09:06.961Z,87.30
2018-03-08T01:11:33.449Z,87.20
2018-03-08T01:13:59.879Z,87.10
2018-03-08T01:16:26.326Z,87.10
2018-03-08T01:18:53.542Z,87.10
2018-03-08T01:21:19.958Z,87.10
2018-03-08T01:23:46.425Z,87.20
2018-03-08T01:26:12.901Z,87.40
2018-03-08T01:28:39.393Z,87.40
2018-03-08T01:31:05.833Z,87.60
2018-03-08T01:33:32.252Z,87.40
2018-03-08T01:35:58.689Z,87.20
2018-03-08T01:38:25.133Z,87.40
2018-03-08T01:40:51.601Z,87.20
2018-03-08T01:43:18.058Z,87.20
2018-03-08T01:45:45.517Z,87.10
2018-03-08T01:48:11.942Z,87.60
2018-03-08T01:50:38.356Z,87.50
2018-03-08T01:53:04.791Z,87.50
2018-03-08T01:55:31.256Z,87.80
2018-03-08T01:57:57.689Z,88.20
2018-03-08T02:00:24.149Z,88.40
2018-03-08T02:02:50.567Z,88.50
2018-03-08T02:05:17.009Z,88.70
2018-03-08T02:07:43.438Z,88.70
2018-03-08T02:10:09.929Z,89.10
2018-03-08T02:12:36.419Z,88.90
2018-03-08T02:15:02.895Z,89.10
2018-03-08T02:17:31.089Z,89.30
2018-03-08T02:19:58.316Z,89.30
2018-03-08T02:22:24.764Z,89.30
2018-03-08T02:24:51.204Z,89.40
2018-03-08T02:27:17.697Z,89.20
2018-03-08T02:29:45.023Z,89.00
2018-03-08T02:32:11.552Z,89.00
2018-03-08T02:34:38.000Z,89.10
2018-03-08T02:37:04.444Z,89.30
2018-03-08T02:39:30.909Z,89.30
2018-03-08T02:41:57.330Z,89.40
2018-03-08T02:44:23.805Z,89.40
2018-03-08T02:46:50.263Z,89.50
2018-03-08T02:49:16.707Z,89.50
2018-03-08T02:51:44.180Z,89.30
2018-03-08T02:54:10.686Z,89.20
2018-03-08T02:56:37.289Z,89.10
2018-03-08T02:59:03.835Z,88.90
2018-03-08T03:01:31.122Z,89.00
2018-03-08T03:03:57.671Z,89.00
2018-03-08T03:06:24.222Z,88.80
2018-03-08T03:08:51.538Z,88.70
2018-03-08T03:11:18.833Z,88.50
2018-03-08T03:13:45.426Z,88.50
2018-03-08T03:16:12.014Z,88.60
2018-03-08T03:18:38.601Z,88.60
2018-03-08T03:21:05.346Z,88.70
2018-03-08T03:23:31.887Z,88.80
2018-03-08T03:25:58.434Z,88.70
2018-03-08T03:28:24.966Z,88.70
2018-03-08T03:30:51.591Z,88.80
2018-03-08T03:33:18.159Z,89.00
2018-03-08T03:35:44.740Z,89.10
2018-03-08T03:38:12.042Z,89.40
2018-03-08T03:40:38.575Z,89.40
2018-03-08T03:43:05.124Z,89.80
2018-03-08T03:45:31.668Z,89.70
2018-03-08T03:47:58.216Z,89.80
2018-03-08T03:50:24.802Z,89.90
2018-03-08T03:52:52.111Z,89.80
2018-03-08T03:55:18.640Z,89.80
2018-03-08T03:57:45.172Z,89.70
2018-03-08T04:00:11.741Z,89.70
2018-03-08T04:02:38.480Z,90.10
2018-03-08T04:05:05.086Z,90.20
2018-03-08T04:07:31.593Z,90.30
2018-03-08T04:09:58.186Z,90.50
2018-03-08T04:12:24.769Z,90.60
2018-03-08T04:14:51.293Z,90.60
2018-03-08T04:17:18.687Z,90.70
2018-03-08T04:19:45.235Z,90.70
2018-03-08T04:22:11.840Z,90.90
2018-03-08T04:24:38.390Z,91.20
2018-03-08T04:27:04.971Z,91.40
2018-03-08T04:29:31.559Z,91.50
2018-03-08T04:31:58.069Z,92.10
2018-03-08T04:34:25.390Z,92.10
2018-03-08T04:36:51.910Z,92.00
2018-03-08T04:39:18.526Z,92.20
2018-03-08T04:41:45.070Z,92.20
2018-03-08T04:44:11.619Z,92.20
2018-03-08T04:46:39.217Z,92.30
2018-03-08T04:49:05.834Z,92.30
2018-03-08T04:51:32.439Z,92.30
2018-03-08T04:53:59.060Z,92.30
2018-03-08T04:56:25.603Z,92.30
2018-03-08T04:58:52.136Z,92.20
2018-03-08T05:01:18.667Z,92.20
2018-03-08T05:03:45.297Z,92.20
2018-03-08T05:06:12.530Z,92.20
2018-03-08T05:08:39.070Z,92.20
2018-03-08T05:11:06.418Z,92.20
2018-03-08T05:13:34.697Z,92.20
2018-03-08T05:16:01.247Z,92.20
2018-03-08T05:18:27.828Z,92.30
2018-03-08T05:20:55.493Z,92.20
2018-03-08T05:23:22.022Z,92.20
2018-03-08T05:25:49.557Z,92.20
2018-03-08T05:28:16.848Z,92.20
2018-03-08T05:30:43.387Z,92.20
2018-03-08T05:33:09.953Z,92.20
2018-03-08T05:35:36.483Z,92.20
2018-03-08T05:38:03.089Z,92.10
2018-03-08T05:40:29.598Z,92.10
2018-03-08T05:42:56.140Z,92.00
2018-03-08T05:45:22.702Z,92.00
2018-03-08T05:47:49.261Z,92.00
2018-03-08T05:50:15.825Z,92.10
2018-03-08T05:52:43.106Z,92.10
2018-03-08T05:55:09.691Z,92.10
2018-03-08T05:57:36.194Z,92.10
2018-03-08T06:00:02.842Z,92.30
2018-03-08T06:02:29.428Z,92.30
2018-03-08T06:04:56.711Z,92.40
2018-03-08T06:07:24.061Z,92.50
2018-03-08T06:09:50.613Z,92.50
2018-03-08T06:12:17.229Z,92.60
2018-03-08T06:14:44.515Z,92.50
2018-03-08T06:17:11.056Z,92.50
2018-03-08T06:19:37.639Z,92.60
2018-03-08T06:22:04.229Z,92.60
2018-03-08T06:24:30.770Z,93.10
2018-03-08T06:26:57.307Z,92.70
2018-03-08T06:29:23.899Z,92.70
2018-03-08T06:31:51.178Z,92.60
2018-03-08T06:34:17.723Z,92.60
2018-03-08T06:36:44.346Z,92.60
2018-03-08T06:39:10.879Z,92.60
2018-03-08T06:41:37.474Z,92.60
2018-03-08T06:44:06.982Z,92.50
2018-03-08T06:46:33.538Z,92.60
2018-03-08T06:49:00.829Z,92.50
2018-03-08T06:51:27.378Z,92.50
2018-03-08T06:53:53.935Z,92.30
2018-03-08T06:56:20.523Z,92.20
2018-03-08T06:58:47.091Z,92.10
2018-03-08T07:01:13.645Z,92.00
2018-03-08T07:03:40.267Z,91.70
2018-03-08T07:06:06.848Z,91.80
2018-03-08T07:08:34.141Z,91.10
2018-03-08T07:11:00.753Z,91.10
2018-03-08T07:13:28.031Z,89.70
2018-03-08T07:15:54.642Z,89.70
2018-03-08T07:18:21.234Z,88.90
2018-03-08T07:20:47.820Z,86.70
2018-03-08T07:23:15.099Z,84.30
2018-03-08T07:25:41.645Z,84.30
2018-03-08T07:28:08.215Z,83.40
2018-03-08T07:30:34.772Z,81.30
2018-03-08T07:33:02.075Z,82.40
2018-03-08T07:35:28.666Z,82.30
2018-03-08T07:37:55.996Z,78.70
2018-03-08T07:40:22.549Z,78.50
2018-03-08T07:42:49.127Z,77.80
2018-03-08T07:45:15.707Z,75.10
2018-03-08T07:47:42.260Z,73.40
2018-03-08T07:50:09.604Z,71.90
2018-03-08T07:52:36.202Z,71.90
2018-03-08T07:55:02.786Z,71.90
2018-03-08T07:57:32.015Z,72.50
2018-03-08T07:59:58.550Z,72.40
2018-03-08T08:02:26.895Z,72.50
2018-03-08T08:05:05.424Z,72.50
2018-03-08T08:07:44.266Z,72.20
2018-03-08T08:10:10.885Z,71.90
2018-03-08T08:12:37.470Z,72.20
2018-03-08T08:15:04.098Z,72.20
2018-03-08T08:17:30.713Z,69.50
2018-03-08T08:19:58.038Z,68.60
2018-03-08T08:22:24.762Z,68.60
2018-03-08T08:24:51.414Z,64.20
2018-03-08T08:27:18.005Z,62.50
2018-03-08T08:29:44.635Z,59.60
2018-03-08T08:32:12.054Z,55.90
2018-03-08T08:34:38.626Z,55.90
2018-03-08T08:37:05.942Z,55.80
2018-03-08T08:39:32.523Z,55.70
2018-03-08T08:41:59.110Z,54.10
2018-03-08T08:44:25.662Z,53.30
2018-03-08T08:46:52.240Z,52.50
2018-03-08T08:49:19.532Z,53.00
2018-03-08T08:51:46.095Z,53.00
2018-03-08T08:54:12.634Z,52.80
2018-03-08T08:56:40.195Z,52.20
2018-03-08T08:59:06.734Z,52.50
2018-03-08T09:01:33.254Z,52.00
2018-03-08T09:03:59.839Z,52.50
2018-03-08T09:06:27.129Z,51.00
2018-03-08T09:08:53.744Z,51.10
2018-03-08T09:11:20.399Z,49.70
2018-03-08T09:13:46.915Z,49.80
2018-03-08T09:16:13.514Z,52.20
2018-03-08T09:18:40.037Z,50.60
2018-03-08T09:21:06.628Z,47.70
2018-03-08T09:23:33.206Z,47.30
2018-03-08T09:25:59.761Z,47.80
2018-03-08T09:28:26.295Z,47.70
2018-03-08T09:30:52.862Z,47.90
2018-03-08T09:33:19.488Z,50.00
2018-03-08T09:35:46.090Z,48.30
2018-03-08T09:38:12.667Z,48.40
2018-03-08T09:40:39.240Z,47.50
2018-03-08T09:43:05.836Z,47.00
2018-03-08T09:45:33.167Z,48.30
2018-03-08T09:47:59.746Z,48.20
2018-03-08T09:50:27.083Z,48.60
2018-03-08T09:52:53.624Z,48.60
2018-03-08T09:55:20.182Z,45.90
2018-03-08T09:57:46.798Z,48.50
2018-03-08T10:00:13.505Z,44.10
2018-03-08T10:02:40.139Z,44.30
2018-03-08T10:05:06.747Z,42.80
2018-03-08T10:07:33.490Z,41.40
2018-03-08T10:10:00.203Z,42.60
2018-03-08T10:12:27.090Z,43.60
2018-03-08T10:14:53.864Z,41.80
2018-03-08T10:17:20.615Z,39.50
2018-03-08T10:19:47.979Z,37.60
2018-03-08T10:22:14.640Z,37.50
2018-03-08T10:24:41.255Z,39.30
2018-03-08T10:27:08.592Z,39.60
2018-03-08T10:29:35.314Z,39.60
2018-03-08T10:32:02.151Z,39.70
2018-03-08T10:34:28.823Z,40.60
2018-03-08T10:36:56.264Z,41.00
2018-03-08T10:41:49.892Z,41.30
2018-03-08T10:44:16.570Z,42.20
2018-03-08T10:46:43.268Z,43.30
2018-03-08T10:49:10.014Z,43.30
2018-03-08T10:51:37.448Z,46.50
2018-03-08T10:54:04.199Z,46.50
2018-03-08T10:56:30.872Z,45.40
2018-03-08T10:58:58.567Z,44.40
2018-03-08T11:01:25.194Z,45.50
2018-03-08T11:03:55.864Z,45.30
2018-03-08T11:06:28.047Z,45.90
2018-03-08T11:08:55.426Z,47.40
2018-03-08T11:11:22.115Z,47.40
2018-03-08T11:13:48.779Z,46.60
2018-03-08T11:16:16.221Z,46.50
2018-03-08T11:18:43.675Z,48.00
2018-03-08T11:21:10.374Z,48.00
2018-03-08T11:23:37.141Z,48.30
2018-03-08T11:26:03.817Z,48.30
2018-03-08T11:28:30.503Z,47.40
2018-03-08T11:30:57.987Z,46.90
2018-03-08T11:33:24.653Z,48.90
2018-03-08T11:35:51.383Z,49.00
2018-03-08T11:38:18.054Z,48.80
2018-03-08T11:40:45.454Z,48.40
2018-03-08T11:43:12.115Z,48.30
2018-03-08T11:45:38.795Z,48.40
2018-03-08T11:48:05.478Z,48.70
2018-03-08T11:50:32.113Z,49.20
2018-03-08T11:52:58.785Z,49.80
2018-03-08T11:55:25.414Z,49.90
2018-03-08T11:57:52.088Z,49.50
2018-03-08T12:00:18.715Z,48.90
2018-03-08T12:02:46.236Z,46.10
2018-03-08T12:05:12.894Z,46.20
2018-03-08T12:07:39.717Z,45.30
2018-03-08T12:10:07.261Z,44.00
2018-03-08T12:12:34.017Z,43.90
2018-03-08T12:15:00.697Z,43.40
2018-03-08T12:17:28.139Z,39.90
2018-03-08T12:19:54.838Z,39.90
2018-03-08T12:22:21.499Z,41.00
2018-03-08T12:24:48.221Z,38.80
2018-03-08T12:27:14.879Z,39.00
2018-03-08T12:29:41.511Z,38.40
2018-03-08T12:32:08.220Z,39.90
2018-03-08T12:34:34.914Z,42.00
2018-03-08T12:37:01.642Z,40.70
2018-03-08T12:39:28.364Z,41.30
2018-03-08T12:41:55.168Z,36.60
2018-03-08T12:44:21.881Z,36.40
2018-03-08T12:46:48.685Z,37.20
2018-03-08T12:49:15.524Z,38.50
2018-03-08T12:51:42.250Z,38.30
2018-03-08T12:54:09.024Z,38.50
2018-03-08T12:56:36.116Z,39.90
2018-03-08T12:59:02.803Z,38.20
2018-03-08T13:01:29.514Z,36.70
2018-03-08T13:03:56.239Z,36.90
2018-03-08T13:06:23.681Z,39.00
2018-03-08T13:08:51.096Z,38.80
2018-03-08T13:11:18.638Z,38.50
2018-03-08T13:13:45.295Z,38.50
2018-03-08T13:16:11.998Z,39.60
2018-03-08T13:18:39.443Z,37.10
2018-03-08T13:21:06.209Z,37.10
2018-03-08T13:23:32.951Z,36.50
2018-03-08T13:26:00.460Z,36.80
2018-03-08T13:28:27.184Z,36.80
2018-03-08T13:30:53.856Z,36.20
2018-03-08T13:33:20.599Z,36.30
2018-03-08T13:35:47.265Z,35.70
2018-03-08T13:38:14.665Z,35.80
2018-03-08T13:40:41.361Z,35.80
2018-03-08T13:43:08.091Z,35.60
2018-03-08T13:45:35.510Z,37.00
2018-03-08T13:48:02.202Z,37.00
2018-03-08T13:50:29.624Z,40.20
2018-03-08T13:52:56.247Z,40.20
2018-03-08T13:55:22.930Z,39.50
2018-03-08T13:57:49.699Z,37.70
2018-03-08T14:00:16.462Z,36.80
2018-03-08T14:02:43.073Z,36.10
2018-03-08T14:05:09.767Z,36.30
2018-03-08T14:07:36.483Z,36.30
2018-03-08T14:10:04.101Z,37.60
2018-03-08T14:12:31.503Z,38.10
2018-03-08T14:14:58.959Z,37.60
2018-03-08T14:17:25.666Z,37.60
2018-03-08T14:19:52.330Z,38.20
2018-03-08T14:22:20.055Z,39.10
2018-03-08T14:24:46.772Z,38.90
2018-03-08T14:27:13.428Z,39.90
2018-03-08T14:29:40.911Z,40.60
2018-03-08T14:32:08.271Z,40.80
2018-03-08T14:34:35.041Z,40.80
2018-03-08T14:37:01.679Z,41.30
2018-03-08T14:39:28.331Z,42.50
2018-03-08T14:41:55.002Z,42.80
2018-03-08T14:44:21.672Z,43.30
2018-03-08T14:46:48.311Z,44.30
2018-03-08T14:49:14.939Z,44.50
2018-03-08T14:51:42.336Z,45.10
2018-03-08T14:54:09.001Z,45.10
2018-03-08T14:56:35.773Z,44.80
2018-03-08T14:59:02.556Z,44.90
2018-03-08T15:01:29.192Z,44.70
2018-03-08T15:03:55.869Z,45.00
2018-03-08T15:06:22.496Z,44.70
2018-03-08T15:08:49.160Z,45.00
2018-03-08T15:11:15.875Z,45.20
2018-03-08T15:13:42.737Z,44.50
2018-03-08T15:16:09.559Z,43.60
2018-03-08T15:18:37.135Z,43.80
2018-03-08T15:21:03.820Z,43.70
2018-03-08T15:23:30.523Z,45.00
2018-03-08T15:25:57.166Z,45.80
2018-03-08T15:28:24.575Z,47.40
2018-03-08T15:30:51.226Z,47.40
2018-03-08T15:33:18.998Z,47.40
2018-03-08T15:35:45.702Z,47.40
2018-03-08T15:38:12.401Z,48.70
2018-03-08T15:40:39.039Z,48.80
2018-03-08T15:43:05.704Z,48.90
2018-03-08T15:45:32.428Z,48.70
2018-03-08T15:47:59.089Z,48.60
2018-03-08T15:50:26.523Z,48.80
2018-03-08T15:52:53.164Z,48.80
2018-03-08T15:55:19.785Z,49.20
2018-03-08T15:57:46.431Z,49.40
2018-03-08T16:00:13.060Z,49.80
2018-03-08T16:02:39.732Z,49.90
2018-03-08T16:05:06.411Z,50.10
2018-03-08T16:10:35.089Z,50.80
2018-03-08T16:13:02.503Z,51.50
2018-03-08T16:15:29.062Z,51.20
2018-03-08T16:17:55.680Z,51.20
2018-03-08T16:20:22.488Z,51.80
2018-03-08T16:22:52.927Z,52.10
2018-03-08T16:25:19.485Z,52.10
2018-03-08T16:27:46.014Z,52.30
2018-03-08T16:30:12.666Z,52.60
2018-03-08T16:32:39.350Z,52.80
2018-03-08T16:35:06.650Z,52.60
2018-03-08T16:37:33.397Z,53.10
2018-03-08T16:39:59.916Z,53.40
2018-03-08T16:42:26.480Z,53.50
2018-03-08T16:44:53.041Z,54.00
2018-03-08T16:47:19.662Z,54.00
2018-03-08T16:49:46.207Z,54.30
2018-03-08T16:52:12.815Z,54.50
2018-03-08T16:54:44.059Z,55.00
2018-03-08T16:57:10.647Z,54.90
2018-03-08T16:59:37.266Z,55.10
2018-03-08T17:02:03.924Z,55.50
2018-03-08T17:04:30.507Z,55.70
2018-03-08T17:06:57.163Z,55.80
2018-03-08T17:09:23.746Z,56.00
2018-03-08T17:11:51.254Z,56.20
2018-03-08T17:14:17.779Z,56.10
2018-03-08T17:16:45.106Z,56.60
2018-03-08T17:19:12.481Z,56.70
2018-03-08T17:21:39.027Z,56.70
2018-03-08T17:24:05.606Z,56.80
2018-03-08T17:26:32.259Z,56.80
2018-03-08T17:28:59.626Z,57.30
2018-03-08T17:31:26.154Z,57.30
2018-03-08T17:33:53.426Z,57.60
2018-03-08T17:36:20.742Z,58.00
2018-03-08T17:38:47.265Z,57.90
2018-03-08T17:41:13.936Z,58.00
2018-03-08T17:43:40.526Z,58.10
2018-03-08T17:46:08.163Z,58.30
2018-03-08T17:48:34.882Z,58.40
2018-03-08T17:51:01.485Z,58.60
2018-03-08T17:53:28.262Z,58.50
2018-03-08T17:55:55.655Z,58.60
2018-03-08T17:58:22.203Z,58.60
2018-03-08T18:00:48.729Z,58.60
2018-03-08T18:03:15.285Z,58.70
2018-03-08T18:05:41.832Z,58.90
2018-03-08T18:08:09.163Z,59.30
2018-03-08T18:10:41.161Z,59.20
2018-03-08T18:13:07.704Z,59.30
2018-03-08T18:15:34.261Z,59.70
2018-03-08T18:18:01.524Z,60.10
2018-03-08T18:20:28.245Z,60.00
2018-03-08T18:22:55.130Z,60.30
2018-03-08T18:25:21.710Z,60.50
2018-03-08T18:27:48.300Z,60.50
2018-03-08T18:30:15.606Z,60.90
2018-03-08T18:32:46.107Z,60.80
2018-03-08T18:35:12.725Z,60.70
2018-03-08T18:37:39.270Z,60.90
2018-03-08T18:40:06.012Z,60.90
2018-03-08T18:42:32.571Z,60.90
2018-03-08T18:47:56.165Z,61.40
2018-03-08T18:50:22.686Z,61.50
2018-03-08T18:52:49.192Z,61.60
2018-03-08T18:55:16.539Z,61.60
2018-03-08T18:57:43.098Z,61.60
2018-03-08T19:00:09.646Z,61.60
2018-03-08T19:02:36.343Z,61.80
2018-03-08T19:05:02.892Z,61.80
2018-03-08T19:07:30.199Z,61.90
2018-03-08T19:09:56.815Z,61.90
2018-03-08T19:12:23.390Z,61.90
2018-03-08T19:14:50.694Z,61.50
2018-03-08T19:17:17.218Z,61.80
2018-03-08T19:19:44.528Z,61.90
2018-03-08T19:22:11.084Z,61.80
2018-03-08T19:24:38.417Z,61.90
2018-03-08T19:27:04.989Z,61.90
2018-03-08T19:29:31.499Z,62.10
2018-03-08T19:31:58.156Z,62.20
2018-03-08T19:34:25.755Z,62.50
2018-03-08T19:37:09.730Z,62.60
2018-03-08T19:39:36.369Z,62.70
2018-03-08T19:42:06.796Z,62.80
2018-03-08T19:44:44.506Z,62.90
2018-03-08T19:47:11.073Z,63.10
2018-03-08T19:49:38.369Z,63.30
2018-03-08T19:52:04.922Z,63.30
2018-03-08T19:54:31.562Z,63.30
2018-03-08T19:56:58.117Z,63.70
2018-03-08T19:59:25.495Z,64.00
2018-03-08T20:01:53.277Z,64.80
2018-03-08T20:04:21.122Z,64.20
2018-03-08T20:06:49.303Z,64.40
2018-03-08T20:09:15.834Z,64.50
2018-03-08T20:11:42.374Z,64.50
2018-03-08T20:14:09.682Z,64.70
2018-03-08T20:16:38.368Z,64.60
2018-03-08T20:19:04.901Z,64.70
2018-03-08T20:21:31.453Z,64.70
2018-03-08T20:23:57.967Z,64.90
2018-03-08T20:26:24.502Z,64.90
2018-03-08T20:28:51.069Z,64.90
2018-03-08T20:31:17.588Z,64.80
2018-03-08T20:33:44.140Z,64.60
2018-03-08T20:36:10.677Z,64.70
2018-03-08T20:38:37.237Z,64.60
2018-03-08T20:41:04.556Z,64.10
2018-03-08T20:43:31.116Z,64.10
2018-03-08T20:45:57.808Z,63.90
2018-03-08T20:48:24.549Z,63.90
2018-03-08T20:50:51.142Z,63.60
2018-03-08T20:53:17.894Z,63.30
2018-03-08T20:55:44.414Z,63.30
2018-03-08T20:58:11.071Z,63.00
2018-03-08T21:00:37.648Z,62.70
2018-03-08T21:03:04.208Z,62.30
2018-03-08T21:05:30.734Z,61.80
2018-03-08T21:07:57.335Z,61.10
2018-03-08T21:10:23.912Z,60.80
2018-03-08T21:12:50.542Z,60.70
2018-03-08T21:15:17.131Z,60.40
2018-03-08T21:17:44.424Z,59.90
2018-03-08T21:20:10.963Z,59.90
2018-03-08T21:22:37.561Z,59.90
2018-03-08T21:25:04.120Z,59.90
2018-03-08T21:27:31.410Z,59.50
2018-03-08T21:29:57.993Z,59.50
2018-03-08T21:32:24.586Z,59.50
2018-03-08T21:34:51.232Z,59.30
2018-03-08T21:37:17.871Z,59.00
2018-03-08T21:39:44.394Z,58.90
2018-03-08T21:42:10.957Z,58.70
2018-03-08T21:44:37.544Z,58.10
2018-03-08T21:47:04.088Z,58.00
2018-03-08T21:49:31.336Z,57.30
2018-03-08T21:51:58.659Z,57.20
2018-03-08T21:54:25.946Z,57.20
2018-03-08T21:56:53.211Z,57.20
2018-03-08T21:59:19.766Z,57.20
2018-03-08T22:01:46.404Z,56.90
2018-03-08T22:04:12.930Z,57.00
2018-03-08T22:06:39.521Z,56.90
2018-03-08T22:09:06.066Z,56.70
2018-03-08T22:11:33.405Z,56.60
2018-03-08T22:14:00.702Z,56.40
2018-03-08T22:16:27.222Z,56.40
2018-03-08T22:18:54.470Z,56.30
2018-03-08T22:21:21.789Z,56.20
2018-03-08T22:23:48.336Z,56.20
2018-03-08T22:26:14.873Z,55.60
2018-03-08T22:28:41.439Z,55.70
2018-03-08T22:31:08.756Z,55.40
2018-03-08T22:33:35.369Z,55.40
2018-03-08T22:36:01.921Z,55.60
2018-03-08T22:38:28.551Z,55.30
2018-03-08T22:40:55.081Z,55.40
2018-03-08T22:43:21.643Z,55.80
2018-03-08T22:45:48.163Z,56.00
2018-03-08T22:48:14.686Z,55.80
2018-03-08T22:50:41.259Z,55.70
2018-03-08T22:53:07.802Z,55.80
2018-03-08T22:55:34.328Z,56.30
2018-03-08T22:58:01.177Z,57.60
2018-03-08T23:00:27.795Z,61.30
2018-03-08T23:03:00.369Z,64.30
2018-03-08T23:05:26.906Z,65.90
2018-03-08T23:07:53.490Z,70.10
2018-03-08T23:10:20.034Z,72.60
2018-03-08T23:12:46.654Z,74.40
2018-03-08T23:18:10.880Z,76.50
2018-03-08T23:20:37.388Z,76.50
2018-03-08T23:23:03.886Z,77.70
2018-03-08T23:25:30.378Z,77.50
2018-03-08T23:27:56.805Z,77.80
2018-03-08T23:30:24.790Z,78.50
2018-03-08T23:32:51.266Z,78.50
2018-03-08T23:35:17.745Z,78.80
2018-03-08T23:37:44.959Z,80.00
2018-03-08T23:40:11.426Z,79.80
2018-03-08T23:42:37.877Z,80.10
2018-03-08T23:45:04.337Z,80.00
2018-03-08T23:47:30.770Z,80.10
2018-03-08T23:49:57.976Z,81.30
2018-03-08T23:52:24.433Z,81.20
2018-03-08T23:54:50.888Z,81.40
2018-03-08T23:57:18.154Z,82.00
2018-03-08T23:59:44.639Z,81.90
